createdAt,value
2023-02-15T00:02:26.494Z,3.72
2023-02-15T00:07:21.297Z,4.30
2023-02-15T00:12:16.069Z,3.87
2023-02-15T00:14:43.150Z,3.33
2023-02-15T00:17:10.082Z,4.03
2023-02-15T00:19:37.000Z,3.85
2023-02-15T00:22:03.626Z,4.18
2023-02-15T00:26:57.051Z,3.95
2023-02-15T00:29:23.996Z,4.85
2023-02-15T00:31:50.738Z,4.07
2023-02-15T00:34:23.272Z,3.78
2023-02-15T00:36:50.741Z,3.35
2023-02-15T00:39:18.143Z,3.90
2023-02-15T00:41:45.855Z,3.22
2023-02-15T00:44:13.369Z,2.95
2023-02-15T00:46:40.371Z,2.88
2023-02-15T00:49:09.685Z,3.50
2023-02-15T00:51:36.792Z,3.47
2023-02-15T00:54:03.543Z,3.67
2023-02-15T00:58:57.061Z,3.10
2023-02-15T01:01:24.472Z,3.10
2023-02-15T01:03:51.660Z,3.03
2023-02-15T01:08:46.415Z,4.63
2023-02-15T01:11:22.673Z,3.97
2023-02-15T01:13:52.840Z,3.15
2023-02-15T01:16:19.961Z,3.53
2023-02-15T01:18:46.909Z,3.78
2023-02-15T01:21:17.737Z,3.20
2023-02-15T01:23:44.941Z,3.03
2023-02-15T01:26:13.610Z,3.20
2023-02-15T01:28:40.618Z,3.00
2023-02-15T01:31:09.841Z,2.80
2023-02-15T01:33:38.252Z,2.53
2023-02-15T01:36:05.658Z,2.80
2023-02-15T01:38:33.050Z,3.20
2023-02-15T01:41:19.745Z,4.22
2023-02-15T01:43:49.714Z,4.85
2023-02-15T01:46:21.364Z,4.28
2023-02-15T01:48:54.752Z,3.53
2023-02-15T01:51:24.608Z,5.00
2023-02-15T01:53:58.243Z,5.45
2023-02-15T01:56:29.342Z,4.15
2023-02-15T01:58:59.853Z,4.05
2023-02-15T02:01:28.005Z,4.30
2023-02-15T02:04:13.053Z,3.53
2023-02-15T02:06:40.552Z,3.85
2023-02-15T02:09:07.394Z,3.53
2023-02-15T02:11:34.949Z,4.03
2023-02-15T02:14:01.838Z,4.03
2023-02-15T02:16:50.443Z,4.28
2023-02-15T02:19:20.203Z,3.63
2023-02-15T02:22:07.784Z,4.60
2023-02-15T02:25:05.325Z,5.22
2023-02-15T02:27:50.373Z,3.77
2023-02-15T02:30:49.959Z,4.18
2023-02-15T02:33:40.964Z,5.32
2023-02-15T02:36:33.167Z,5.60
2023-02-15T02:39:14.541Z,5.47
2023-02-15T02:42:06.736Z,6.03
2023-02-15T02:45:06.503Z,5.45
2023-02-15T02:47:57.628Z,5.90
2023-02-15T02:50:29.613Z,4.47
2023-02-15T02:52:57.908Z,4.13
2023-02-15T02:55:50.808Z,4.60
2023-02-15T02:58:25.223Z,5.25
2023-02-15T03:01:02.517Z,6.78
2023-02-15T03:03:35.281Z,6.93
2023-02-15T03:06:07.604Z,7.45
2023-02-15T03:08:39.219Z,7.03
2023-02-15T03:11:06.130Z,5.88
2023-02-15T03:13:33.794Z,6.22
2023-02-15T03:16:21.417Z,5.55
2023-02-15T03:18:58.791Z,6.03
2023-02-15T03:21:32.911Z,6.30
2023-02-15T03:24:07.545Z,6.57
2023-02-15T03:26:35.512Z,8.55
2023-02-15T03:29:04.925Z,8.43
2023-02-15T03:31:35.707Z,7.13
2023-02-15T03:34:05.860Z,6.30
2023-02-15T03:36:48.090Z,6.55
2023-02-15T03:39:23.592Z,4.70
2023-02-15T03:42:09.712Z,4.38
2023-02-15T03:44:53.725Z,4.32
2023-02-15T03:47:26.086Z,3.85
2023-02-15T03:49:58.974Z,4.15
2023-02-15T03:52:29.456Z,4.30
2023-02-15T03:54:56.488Z,4.20
2023-02-15T03:57:48.078Z,4.43
2023-02-15T04:00:41.363Z,4.75
2023-02-15T04:03:17.039Z,4.95
2023-02-15T04:05:45.769Z,4.22
2023-02-15T04:08:13.026Z,4.00
2023-02-15T04:10:56.001Z,4.90
2023-02-15T04:13:30.572Z,4.68
2023-02-15T04:16:07.953Z,5.25
2023-02-15T04:18:57.198Z,2.92
2023-02-15T04:21:44.328Z,2.95
2023-02-15T04:24:30.221Z,3.00
2023-02-15T04:26:57.478Z,2.47
2023-02-15T04:29:25.934Z,3.10
2023-02-15T04:31:54.256Z,2.95
2023-02-15T04:34:21.375Z,2.95
2023-02-15T04:36:48.064Z,2.83
2023-02-15T04:41:42.723Z,2.10
2023-02-15T04:44:09.663Z,2.70
2023-02-15T04:46:36.698Z,2.72
2023-02-15T04:49:03.747Z,2.00
2023-02-15T04:51:30.644Z,7.70
2023-02-15T04:53:57.647Z,19.00
2023-02-15T04:56:24.461Z,17.75
2023-02-15T05:01:18.687Z,6.55
2023-02-15T05:03:45.423Z,4.95
2023-02-15T05:08:38.708Z,2.42
2023-02-15T05:13:32.021Z,2.35
2023-02-15T05:18:25.358Z,2.47
2023-02-15T05:23:18.737Z,2.22
2023-02-15T05:31:27.545Z,1.73
2023-02-15T05:33:54.382Z,2.30
2023-02-15T05:38:47.647Z,1.80
2023-02-15T05:43:41.251Z,1.77
2023-02-15T05:46:08.477Z,2.10
2023-02-15T05:48:35.975Z,1.90
2023-02-15T05:51:14.861Z,2.42
2023-02-15T05:53:41.720Z,2.17
2023-02-15T05:56:12.853Z,1.80
2023-02-15T05:58:41.541Z,2.67
2023-02-15T06:01:11.941Z,1.85
2023-02-15T06:03:39.122Z,2.50
2023-02-15T06:06:07.226Z,2.35
2023-02-15T06:08:34.692Z,2.25
2023-02-15T06:11:01.874Z,2.20
2023-02-15T06:13:28.962Z,2.33
2023-02-15T06:15:55.742Z,2.15
2023-02-15T06:18:22.510Z,1.92
2023-02-15T06:23:16.414Z,1.90
2023-02-15T06:25:45.096Z,1.90
2023-02-15T06:28:11.834Z,2.17
2023-02-15T06:33:05.304Z,2.40
2023-02-15T06:35:31.951Z,2.00
2023-02-15T06:40:25.301Z,2.05
2023-02-15T06:45:18.570Z,2.63
2023-02-15T06:50:12.134Z,2.05
2023-02-15T06:52:38.914Z,2.45
2023-02-15T06:57:34.015Z,2.10
2023-02-15T07:00:00.859Z,2.92
2023-02-15T07:02:27.730Z,3.10
2023-02-15T07:04:54.472Z,2.50
2023-02-15T07:07:21.261Z,4.18
2023-02-15T07:12:33.324Z,2.58
2023-02-15T07:15:00.166Z,2.95
2023-02-15T07:17:36.886Z,3.05
2023-02-15T07:20:09.970Z,2.80
2023-02-15T07:22:37.674Z,3.30
2023-02-15T07:25:06.415Z,3.03
2023-02-15T07:27:33.425Z,2.90
2023-02-15T07:30:00.737Z,3.20
2023-02-15T07:32:32.420Z,3.00
2023-02-15T07:35:00.201Z,2.92
2023-02-15T07:37:27.760Z,3.10
2023-02-15T07:39:54.642Z,4.07
2023-02-15T07:42:22.808Z,3.67
2023-02-15T07:44:49.595Z,3.60
2023-02-15T07:49:43.038Z,4.15
2023-02-15T07:54:36.276Z,3.72
2023-02-15T07:57:03.271Z,3.60
2023-02-15T07:59:30.154Z,4.03
2023-02-15T08:04:25.120Z,3.60
2023-02-15T08:06:54.936Z,4.63
2023-02-15T08:09:22.085Z,4.05
2023-02-15T08:11:49.678Z,3.92
2023-02-15T08:14:21.339Z,3.97
2023-02-15T08:16:49.682Z,3.58
2023-02-15T08:19:22.023Z,4.10
2023-02-15T08:21:51.616Z,3.72
2023-02-15T08:24:21.411Z,4.90
2023-02-15T08:26:49.198Z,5.03
2023-02-15T08:29:17.590Z,4.78
2023-02-15T08:31:44.867Z,4.78
2023-02-15T08:34:15.498Z,4.47
2023-02-15T08:36:42.808Z,4.13
2023-02-15T08:39:09.838Z,3.65
2023-02-15T08:41:38.384Z,4.47
2023-02-15T08:44:07.622Z,5.28
2023-02-15T08:46:36.977Z,4.43
2023-02-15T08:49:04.366Z,4.82
2023-02-15T08:51:34.107Z,4.75
2023-02-15T08:54:05.623Z,5.07
2023-02-15T08:56:38.020Z,5.35
2023-02-15T08:59:06.610Z,4.38
2023-02-15T09:01:35.223Z,5.07
2023-02-15T09:04:09.550Z,3.88
2023-02-15T09:06:38.389Z,4.65
2023-02-15T09:09:05.894Z,5.18
2023-02-15T09:11:37.282Z,5.43
2023-02-15T09:14:10.118Z,4.95
2023-02-15T09:16:38.941Z,4.93
2023-02-15T09:19:06.813Z,4.85
2023-02-15T09:21:36.427Z,4.80
2023-02-15T09:24:08.688Z,4.88
2023-02-15T09:26:38.451Z,4.15
2023-02-15T09:29:05.167Z,4.70
2023-02-15T09:31:45.013Z,5.25
2023-02-15T09:34:19.215Z,3.65
2023-02-15T09:36:47.547Z,4.60
2023-02-15T09:39:19.742Z,3.72
2023-02-15T09:42:23.353Z,4.30
2023-02-15T09:45:18.875Z,3.97
2023-02-15T09:48:10.962Z,4.97
2023-02-15T09:50:56.352Z,5.22
2023-02-15T09:53:41.147Z,5.75
2023-02-15T09:56:21.131Z,4.82
2023-02-15T09:59:04.884Z,4.60
2023-02-15T10:01:39.705Z,4.50
2023-02-15T10:04:50.338Z,3.75
2023-02-15T10:07:56.049Z,4.82
2023-02-15T10:10:35.972Z,4.05
2023-02-15T10:13:21.202Z,3.95
2023-02-15T10:15:54.494Z,4.43
2023-02-15T10:18:45.441Z,4.25
2023-02-15T10:21:22.048Z,4.18
2023-02-15T10:24:05.608Z,5.20
2023-02-15T10:26:49.552Z,5.30
2023-02-15T10:29:37.301Z,5.95
2023-02-15T10:35:16.178Z,7.25
2023-02-15T10:37:47.943Z,7.07
2023-02-15T10:40:41.994Z,7.65
2023-02-15T10:43:35.038Z,7.43
2023-02-15T10:46:04.741Z,7.03
2023-02-15T10:49:00.744Z,7.90
2023-02-15T10:51:49.149Z,8.77
2023-02-15T10:54:35.591Z,7.43
2023-02-15T10:57:18.227Z,6.97
2023-02-15T11:00:00.450Z,6.40
2023-02-15T11:03:11.071Z,8.52
2023-02-15T11:06:05.674Z,8.20
2023-02-15T11:08:36.919Z,9.70
2023-02-15T11:11:09.284Z,9.50
2023-02-15T11:13:42.926Z,9.52
2023-02-15T11:16:18.985Z,8.93
2023-02-15T11:18:55.683Z,9.10
2023-02-15T11:21:24.090Z,9.25
2023-02-15T11:23:52.203Z,9.48
2023-02-15T11:26:24.740Z,9.85
2023-02-15T11:29:06.755Z,9.13
2023-02-15T11:31:47.159Z,10.30
2023-02-15T11:34:39.410Z,8.55
2023-02-15T11:37:13.250Z,8.88
2023-02-15T11:39:40.909Z,8.25
2023-02-15T11:42:14.930Z,9.60
2023-02-15T11:44:56.053Z,9.05
2023-02-15T11:47:22.724Z,8.55
2023-02-15T11:49:49.542Z,9.00
2023-02-15T11:52:17.993Z,9.02
2023-02-15T11:54:48.219Z,10.73
2023-02-15T11:57:29.207Z,8.80
2023-02-15T12:00:06.806Z,8.57
2023-02-15T12:02:38.235Z,7.32
2023-02-15T12:05:12.678Z,9.10
2023-02-15T12:07:47.133Z,10.05
2023-02-15T12:10:34.751Z,10.05
2023-02-15T12:13:16.314Z,10.52
2023-02-15T12:15:49.840Z,12.65
2023-02-15T12:18:34.317Z,11.88
2023-02-15T12:21:04.430Z,12.40
2023-02-15T12:23:32.974Z,12.48
2023-02-15T12:26:00.182Z,12.00
2023-02-15T12:28:31.167Z,13.85
2023-02-15T12:30:59.044Z,12.20
2023-02-15T12:33:46.461Z,10.48
2023-02-15T12:36:25.685Z,11.15
2023-02-15T12:39:31.742Z,12.13
2023-02-15T12:42:04.348Z,12.00
2023-02-15T12:44:36.754Z,12.90
2023-02-15T12:47:05.070Z,12.13
2023-02-15T12:49:33.078Z,12.98
2023-02-15T12:52:02.845Z,11.98
2023-02-15T12:54:41.767Z,13.68
2023-02-15T12:57:26.345Z,13.35
2023-02-15T13:00:28.481Z,11.73
2023-02-15T13:02:57.687Z,9.32
2023-02-15T13:05:39.557Z,9.82
2023-02-15T13:08:22.883Z,10.18
2023-02-15T13:11:00.888Z,11.20
2023-02-15T13:13:51.216Z,9.52
2023-02-15T13:16:27.713Z,8.45
2023-02-15T13:18:55.435Z,9.15
2023-02-15T13:21:27.253Z,7.18
2023-02-15T13:24:01.085Z,8.15
2023-02-15T13:26:31.808Z,7.25
2023-02-15T13:29:09.464Z,7.95
2023-02-15T13:31:37.109Z,8.75
2023-02-15T13:34:16.013Z,7.88
2023-02-15T13:36:51.697Z,7.07
2023-02-15T13:39:25.060Z,6.63
2023-02-15T13:42:06.440Z,6.18
2023-02-15T13:45:17.906Z,5.40
2023-02-15T13:48:01.280Z,6.18
2023-02-15T13:50:43.024Z,6.05
2023-02-15T13:53:36.373Z,5.38
2023-02-15T13:56:35.345Z,5.47
2023-02-15T13:59:16.303Z,5.60
2023-02-15T14:01:50.884Z,4.93
2023-02-15T14:04:20.439Z,5.78
2023-02-15T14:07:14.033Z,5.40
2023-02-15T14:10:14.267Z,5.97
2023-02-15T14:12:59.741Z,5.78
2023-02-15T14:15:52.306Z,5.47
2023-02-15T14:18:36.785Z,5.65
2023-02-15T14:21:19.892Z,6.53
2023-02-15T14:24:18.421Z,9.02
2023-02-15T14:26:47.820Z,7.20
2023-02-15T14:29:44.540Z,7.72
2023-02-15T14:32:27.262Z,7.88
2023-02-15T14:35:05.509Z,8.48
2023-02-15T14:38:05.479Z,6.88
2023-02-15T14:41:03.137Z,7.15
2023-02-15T14:46:37.137Z,6.95
2023-02-15T14:49:14.035Z,7.10
2023-02-15T14:51:40.679Z,6.80
2023-02-15T14:56:39.857Z,6.03
2023-02-15T14:59:21.566Z,6.55
2023-02-15T15:02:10.112Z,6.05
2023-02-15T15:04:45.477Z,6.05
2023-02-15T15:07:25.663Z,6.18
2023-02-15T15:10:46.667Z,6.43
2023-02-15T15:13:31.705Z,5.57
2023-02-15T15:16:24.632Z,5.75
2023-02-15T15:18:51.697Z,6.68
2023-02-15T15:21:49.660Z,5.90
2023-02-15T15:24:38.221Z,6.18
2023-02-15T15:27:44.124Z,6.45
2023-02-15T15:30:20.104Z,7.80
2023-02-15T15:32:56.108Z,8.38
2023-02-15T15:35:53.860Z,8.20
2023-02-15T15:38:45.439Z,8.07
2023-02-15T15:41:43.399Z,9.02
2023-02-15T15:44:28.699Z,8.48
2023-02-15T15:47:20.650Z,9.32
2023-02-15T15:49:47.608Z,10.18
2023-02-15T15:52:21.100Z,10.30
2023-02-15T15:54:53.364Z,10.18
2023-02-15T15:57:30.580Z,12.07
2023-02-15T16:00:00.498Z,9.82
2023-02-15T16:02:27.918Z,9.45
2023-02-15T16:04:54.761Z,11.07
2023-02-15T16:07:27.431Z,11.20
2023-02-15T16:10:00.706Z,10.10
2023-02-15T16:12:34.900Z,10.57
2023-02-15T16:15:24.845Z,11.20
2023-02-15T16:17:57.590Z,10.73
2023-02-15T16:20:34.709Z,11.07
2023-02-15T16:23:35.631Z,11.77
2023-02-15T16:26:47.855Z,12.10
2023-02-15T16:29:26.986Z,11.55
2023-02-15T16:31:59.566Z,11.80
2023-02-15T16:34:28.904Z,12.88
2023-02-15T16:37:18.822Z,11.93
2023-02-15T16:39:48.796Z,12.60
2023-02-15T16:42:17.289Z,11.38
2023-02-15T16:44:46.123Z,11.63
2023-02-15T16:47:34.453Z,12.57
2023-02-15T16:50:04.182Z,12.30
2023-02-15T16:52:31.090Z,11.25
2023-02-15T16:57:32.360Z,12.27
2023-02-15T17:00:05.812Z,13.07
2023-02-15T17:02:54.453Z,12.57
2023-02-15T17:05:21.710Z,13.07
2023-02-15T17:08:11.969Z,12.13
2023-02-15T17:10:44.176Z,12.90
2023-02-15T17:13:12.512Z,11.40
2023-02-15T17:15:44.919Z,11.63
2023-02-15T17:18:20.209Z,10.68
2023-02-15T17:20:48.543Z,10.95
2023-02-15T17:23:34.359Z,8.48
2023-02-15T17:26:11.347Z,10.50
2023-02-15T17:28:38.457Z,9.38
2023-02-15T17:31:09.249Z,9.27
2023-02-15T17:33:40.047Z,10.55
2023-02-15T17:36:22.694Z,10.23
2023-02-15T17:38:58.353Z,8.68
2023-02-15T17:41:29.992Z,7.97
2023-02-15T17:43:57.535Z,10.25
2023-02-15T17:46:25.502Z,8.68
2023-02-15T17:48:54.810Z,8.48
2023-02-15T17:51:22.376Z,8.18
2023-02-15T17:54:08.242Z,8.50
2023-02-15T17:56:36.563Z,9.35
2023-02-15T17:59:07.552Z,9.65
2023-02-15T18:02:08.309Z,9.70
2023-02-15T18:04:55.739Z,9.07
2023-02-15T18:07:41.917Z,9.85
2023-02-15T18:10:37.564Z,10.32
2023-02-15T18:13:04.570Z,8.85
2023-02-15T18:15:31.405Z,9.10
2023-02-15T18:20:29.271Z,8.98
2023-02-15T18:22:56.011Z,9.07
2023-02-15T18:25:25.260Z,9.18
2023-02-15T18:27:54.849Z,6.63
2023-02-15T18:30:23.580Z,8.00
2023-02-15T18:32:53.933Z,7.22
2023-02-15T18:35:24.477Z,7.45
2023-02-15T18:37:53.217Z,7.15
2023-02-15T18:40:26.044Z,6.20
2023-02-15T18:42:52.993Z,6.63
2023-02-15T18:45:27.410Z,7.80
2023-02-15T18:47:55.103Z,7.50
2023-02-15T18:50:24.155Z,7.97
2023-02-15T18:52:51.544Z,6.25
2023-02-15T18:55:24.729Z,6.28
2023-02-15T18:57:54.688Z,7.13
2023-02-15T19:00:32.223Z,6.82
2023-02-15T19:03:00.342Z,6.40
2023-02-15T19:05:29.229Z,7.05
2023-02-15T19:07:58.414Z,5.38
2023-02-15T19:10:27.218Z,4.85
2023-02-15T19:12:56.014Z,5.25
2023-02-15T19:15:31.550Z,6.15
2023-02-15T19:17:58.209Z,5.10
2023-02-15T19:20:27.789Z,5.70
2023-02-15T19:22:56.375Z,5.70
2023-02-15T19:25:26.336Z,4.53
2023-02-15T19:27:54.048Z,5.32
2023-02-15T19:30:31.795Z,5.93
2023-02-15T19:32:59.809Z,4.80
2023-02-15T19:35:31.606Z,5.47
2023-02-15T19:38:01.344Z,5.35
2023-02-15T19:40:30.519Z,5.45
2023-02-15T19:42:57.627Z,5.43
2023-02-15T19:45:27.415Z,5.13
2023-02-15T19:47:55.085Z,5.63
2023-02-15T19:50:25.557Z,5.47
2023-02-15T19:52:52.667Z,5.78
2023-02-15T19:55:31.274Z,5.05
2023-02-15T19:57:59.149Z,5.75
2023-02-15T20:00:29.133Z,6.40
2023-02-15T20:02:57.824Z,5.40
2023-02-15T20:05:25.747Z,5.88
2023-02-15T20:07:53.471Z,7.78
2023-02-15T20:10:22.812Z,6.97
2023-02-15T20:12:50.333Z,9.13
2023-02-15T20:15:20.124Z,7.18
2023-02-15T20:17:47.227Z,8.45
2023-02-15T20:20:14.872Z,8.35
2023-02-15T20:22:42.981Z,8.60
2023-02-15T20:25:24.511Z,6.50
2023-02-15T20:27:51.307Z,7.25
2023-02-15T20:30:21.127Z,6.88
2023-02-15T20:32:47.990Z,6.43
2023-02-15T20:37:52.464Z,6.63
2023-02-15T20:40:28.148Z,6.93
2023-02-15T20:42:55.309Z,6.50
2023-02-15T20:45:30.555Z,7.13
2023-02-15T20:47:58.121Z,6.95
2023-02-15T20:50:31.592Z,6.57
2023-02-15T20:53:00.166Z,7.45
2023-02-15T20:55:29.246Z,6.30
2023-02-15T20:57:56.899Z,6.50
2023-02-15T21:00:26.332Z,6.90
2023-02-15T21:02:56.901Z,6.30
2023-02-15T21:05:26.929Z,5.88
2023-02-15T21:07:54.286Z,5.40
2023-02-15T21:10:25.909Z,5.32
2023-02-15T21:12:53.436Z,4.72
2023-02-15T21:15:36.158Z,4.20
2023-02-15T21:18:06.205Z,4.30
2023-02-15T21:20:34.568Z,4.95
2023-02-15T21:23:04.621Z,4.47
2023-02-15T21:25:38.377Z,4.53
2023-02-15T21:28:08.331Z,4.60
2023-02-15T21:30:35.166Z,5.28
2023-02-15T21:35:28.855Z,5.40
2023-02-15T21:37:55.964Z,4.45
2023-02-15T21:40:26.660Z,5.03
2023-02-15T21:43:12.168Z,4.47
2023-02-15T21:45:57.662Z,4.95
2023-02-15T21:48:24.318Z,4.45
2023-02-15T21:51:10.052Z,4.80
2023-02-15T21:53:45.777Z,3.88
2023-02-15T21:56:18.930Z,4.45
2023-02-15T21:58:45.676Z,4.18
2023-02-15T22:03:47.867Z,4.03
2023-02-15T22:06:14.724Z,4.35
2023-02-15T22:08:41.615Z,3.85
2023-02-15T22:11:13.765Z,4.30
2023-02-15T22:13:42.321Z,4.78
2023-02-15T22:16:17.129Z,4.22
2023-02-15T22:18:44.350Z,4.10
2023-02-15T22:21:11.573Z,4.63
2023-02-15T22:23:38.996Z,3.63
2023-02-15T22:26:15.278Z,3.58
2023-02-15T22:28:42.822Z,4.72
2023-02-15T22:31:18.644Z,4.20
2023-02-15T22:33:45.610Z,4.25
2023-02-15T22:38:46.678Z,4.85
2023-02-15T22:41:13.816Z,4.32
2023-02-15T22:43:42.984Z,3.53
2023-02-15T22:46:24.339Z,4.50
2023-02-15T22:48:51.809Z,5.10
2023-02-15T22:51:21.959Z,4.25
2023-02-15T22:53:54.881Z,5.35
2023-02-15T22:56:38.815Z,4.13
2023-02-15T22:59:17.254Z,4.50
2023-02-15T23:01:44.159Z,4.00
2023-02-15T23:06:44.883Z,3.85
2023-02-15T23:09:11.987Z,3.78
2023-02-15T23:11:39.299Z,3.80
2023-02-15T23:14:06.266Z,3.78
2023-02-15T23:16:34.599Z,3.42
2023-02-15T23:19:01.358Z,3.78
2023-02-15T23:21:33.152Z,2.97
2023-02-15T23:24:20.121Z,2.92
2023-02-15T23:26:48.282Z,3.40
2023-02-15T23:29:17.869Z,3.67
2023-02-15T23:31:47.092Z,3.08
2023-02-15T23:34:24.304Z,4.25
2023-02-15T23:36:51.052Z,3.42
2023-02-15T23:42:11.982Z,3.38
2023-02-15T23:44:39.676Z,3.63
2023-02-15T23:47:14.579Z,3.55
2023-02-15T23:49:41.223Z,3.53
2023-02-15T23:52:10.436Z,3.70
2023-02-15T23:54:37.264Z,3.85
2023-02-15T23:57:04.406Z,3.10
2023-02-15T23:59:32.287Z,3.22
